Paraiba do Sul, Brazil
Current Conditions -  °F | °C
As of 10:00 AM on Monday 20 Oct 2014 (Local Time) from SBJF Reporting Station
Broken Clouds Broken Clouds  
Wind Chill: 68°   Ceiling: 7000
Heat Index: 68°   Visibility: 4mi
Dew Point: 63°   Wind: 5mph
Humidity: 83%   Direction: 30°NNE
Pressure: 30.06"   Gusts: NA
Location:  22.16°S, 43.29°W
Report Text: SBJF 201300Z 03004KT 6000 SCT010 BKN070 20/17 Q1018
Loading
Personal Weather Stations






























Interactive Weather Map
Tropical Storm Tracking
New forecast layout! Learn more

10-Day Weather Forecast

Advertisements
Track Severe Weather on mobile